sensor_id;sensor_type;location;lat;lon;timestamp;temperature;humidity
29803;DHT22;16702;50.898;4.662;2022-08-21T00:00:28;21.20;99.90
29803;DHT22;16702;50.898;4.662;2022-08-21T00:03:02;21.20;99.90
29803;DHT22;16702;50.898;4.662;2022-08-21T00:05:36;21.10;99.90
29803;DHT22;16702;50.898;4.662;2022-08-21T00:08:07;21.10;99.90
29803;DHT22;16702;50.898;4.662;2022-08-21T00:10:38;21.10;99.90
29803;DHT22;16702;50.898;4.662;2022-08-21T00:13:11;21.00;99.90
29803;DHT22;16702;50.898;4.662;2022-08-21T00:15:48;21.00;99.90
29803;DHT22;16702;50.898;4.662;2022-08-21T00:18:19;20.90;99.90
29803;DHT22;16702;50.898;4.662;2022-08-21T00:20:49;20.90;99.90
29803;DHT22;16702;50.898;4.662;2022-08-21T00:23:20;20.90;99.90
29803;DHT22;16702;50.898;4.662;2022-08-21T00:25:51;20.80;99.90
29803;DHT22;16702;50.898;4.662;2022-08-21T00:28:21;20.80;99.90
29803;DHT22;16702;50.898;4.662;2022-08-21T00:30:54;20.80;99.90
29803;DHT22;16702;50.898;4.662;2022-08-21T00:33:30;20.80;99.90
29803;DHT22;16702;50.898;4.662;2022-08-21T00:36:02;20.80;99.90
29803;DHT22;16702;50.898;4.662;2022-08-21T00:38:32;20.80;99.90
29803;DHT22;16702;50.898;4.662;2022-08-21T00:41:05;20.70;99.90
29803;DHT22;16702;50.898;4.662;2022-08-21T00:43:56;20.70;99.90
29803;DHT22;16702;50.898;4.662;2022-08-21T00:46:31;20.70;99.90
29803;DHT22;16702;50.898;4.662;2022-08-21T00:49:02;20.60;99.90
29803;DHT22;16702;50.898;4.662;2022-08-21T00:51:36;20.50;99.90
29803;DHT22;16702;50.898;4.662;2022-08-21T00:54:09;20.60;99.90
29803;DHT22;16702;50.898;4.662;2022-08-21T00:56:46;20.60;99.90
29803;DHT22;16702;50.898;4.662;2022-08-21T00:59:20;20.60;99.90
29803;DHT22;16702;50.898;4.662;2022-08-21T01:01:53;20.50;99.90
29803;DHT22;16702;50.898;4.662;2022-08-21T01:04:24;20.50;99.90
29803;DHT22;16702;50.898;4.662;2022-08-21T01:06:54;20.40;99.90
29803;DHT22;16702;50.898;4.662;2022-08-21T01:09:25;20.50;99.90
29803;DHT22;16702;50.898;4.662;2022-08-21T01:11:55;20.40;99.90
29803;DHT22;16702;50.898;4.662;2022-08-21T01:14:26;20.40;99.90
29803;DHT22;16702;50.898;4.662;2022-08-21T01:17:01;20.40;99.90
29803;DHT22;16702;50.898;4.662;2022-08-21T01:19:32;20.40;99.90
29803;DHT22;16702;50.898;4.662;2022-08-21T01:22:08;20.30;99.90
29803;DHT22;16702;50.898;4.662;2022-08-21T01:24:39;20.30;99.90
29803;DHT22;16702;50.898;4.662;2022-08-21T01:27:10;20.30;99.90
29803;DHT22;16702;50.898;4.662;2022-08-21T01:29:44;20.30;99.90
29803;DHT22;16702;50.898;4.662;2022-08-21T01:32:17;20.20;99.90
29803;DHT22;16702;50.898;4.662;2022-08-21T01:34:49;20.20;99.90
29803;DHT22;16702;50.898;4.662;2022-08-21T01:37:23;20.20;99.90
29803;DHT22;16702;50.898;4.662;2022-08-21T01:39:54;20.20;99.90
29803;DHT22;16702;50.898;4.662;2022-08-21T01:42:25;20.10;99.90
29803;DHT22;16702;50.898;4.662;2022-08-21T01:44:55;20.10;99.90
29803;DHT22;16702;50.898;4.662;2022-08-21T01:47:26;20.10;99.90
29803;DHT22;16702;50.898;4.662;2022-08-21T01:49:56;20.10;99.90
29803;DHT22;16702;50.898;4.662;2022-08-21T01:52:29;20.00;99.90
29803;DHT22;16702;50.898;4.662;2022-08-21T01:55:00;20.00;99.90
29803;DHT22;16702;50.898;4.662;2022-08-21T01:57:30;19.90;99.90
29803;DHT22;16702;50.898;4.662;2022-08-21T02:00:02;20.00;99.90
29803;DHT22;16702;50.898;4.662;2022-08-21T02:02:37;19.80;99.90
29803;DHT22;16702;50.898;4.662;2022-08-21T02:05:09;19.80;99.90
29803;DHT22;16702;50.898;4.662;2022-08-21T02:07:44;19.80;99.90
29803;DHT22;16702;50.898;4.662;2022-08-21T02:10:17;19.80;99.90
29803;DHT22;16702;50.898;4.662;2022-08-21T02:12:48;19.80;99.90
29803;DHT22;16702;50.898;4.662;2022-08-21T02:15:19;19.70;99.90
29803;DHT22;16702;50.898;4.662;2022-08-21T02:17:51;19.70;99.90
29803;DHT22;16702;50.898;4.662;2022-08-21T02:20:24;19.70;99.90
29803;DHT22;16702;50.898;4.662;2022-08-21T02:22:57;19.70;99.90
29803;DHT22;16702;50.898;4.662;2022-08-21T02:25:28;19.70;99.90
29803;DHT22;16702;50.898;4.662;2022-08-21T02:28:02;19.70;99.90
29803;DHT22;16702;50.898;4.662;2022-08-21T02:30:36;19.60;99.90
29803;DHT22;16702;50.898;4.662;2022-08-21T02:33:09;19.60;99.90
29803;DHT22;16702;50.898;4.662;2022-08-21T02:35:41;19.60;99.90
29803;DHT22;16702;50.898;4.662;2022-08-21T02:38:17;19.60;99.90
29803;DHT22;16702;50.898;4.662;2022-08-21T02:40:50;19.60;99.90
29803;DHT22;16702;50.898;4.662;2022-08-21T02:43:22;19.50;99.90
29803;DHT22;16702;50.898;4.662;2022-08-21T02:45:54;19.50;99.90
29803;DHT22;16702;50.898;4.662;2022-08-21T02:48:27;19.50;99.90
29803;DHT22;16702;50.898;4.662;2022-08-21T02:51:00;19.50;99.90
29803;DHT22;16702;50.898;4.662;2022-08-21T02:53:34;19.50;99.90
29803;DHT22;16702;50.898;4.662;2022-08-21T02:56:07;19.40;99.90
29803;DHT22;16702;50.898;4.662;2022-08-21T02:58:41;19.40;99.90
29803;DHT22;16702;50.898;4.662;2022-08-21T03:01:12;19.30;99.90
29803;DHT22;16702;50.898;4.662;2022-08-21T03:03:45;19.30;99.90
29803;DHT22;16702;50.898;4.662;2022-08-21T03:06:19;19.40;99.90
29803;DHT22;16702;50.898;4.662;2022-08-21T03:08:55;19.20;99.90
29803;DHT22;16702;50.898;4.662;2022-08-21T03:11:25;19.20;99.90
29803;DHT22;16702;50.898;4.662;2022-08-21T03:13:56;19.20;99.90
29803;DHT22;16702;50.898;4.662;2022-08-21T03:16:27;19.20;99.90
29803;DHT22;16702;50.898;4.662;2022-08-21T03:19:01;19.20;99.90
29803;DHT22;16702;50.898;4.662;2022-08-21T03:21:32;19.20;99.90
29803;DHT22;16702;50.898;4.662;2022-08-21T03:24:05;19.20;99.90
29803;DHT22;16702;50.898;4.662;2022-08-21T03:26:36;19.20;99.90
29803;DHT22;16702;50.898;4.662;2022-08-21T03:29:07;19.20;99.90
29803;DHT22;16702;50.898;4.662;2022-08-21T03:31:38;19.20;99.90
29803;DHT22;16702;50.898;4.662;2022-08-21T03:34:08;19.20;99.90
29803;DHT22;16702;50.898;4.662;2022-08-21T03:36:39;19.20;99.90
29803;DHT22;16702;50.898;4.662;2022-08-21T03:39:13;19.10;99.90
29803;DHT22;16702;50.898;4.662;2022-08-21T03:41:43;19.10;99.90
29803;DHT22;16702;50.898;4.662;2022-08-21T03:44:14;19.10;99.90
29803;DHT22;16702;50.898;4.662;2022-08-21T03:46:44;19.10;99.90
29803;DHT22;16702;50.898;4.662;2022-08-21T03:49:15;19.10;99.90
29803;DHT22;16702;50.898;4.662;2022-08-21T03:51:46;19.10;99.90
29803;DHT22;16702;50.898;4.662;2022-08-21T03:54:28;19.00;99.90
29803;DHT22;16702;50.898;4.662;2022-08-21T03:56:58;19.00;99.90
29803;DHT22;16702;50.898;4.662;2022-08-21T03:59:29;19.00;99.90
29803;DHT22;16702;50.898;4.662;2022-08-21T04:02:01;19.00;99.90
29803;DHT22;16702;50.898;4.662;2022-08-21T04:04:33;19.00;99.90
29803;DHT22;16702;50.898;4.662;2022-08-21T04:07:04;19.00;99.90
29803;DHT22;16702;50.898;4.662;2022-08-21T04:09:37;19.00;99.90
29803;DHT22;16702;50.898;4.662;2022-08-21T04:12:08;18.90;99.90
29803;DHT22;16702;50.898;4.662;2022-08-21T04:14:38;18.90;99.90
29803;DHT22;16702;50.898;4.662;2022-08-21T04:17:09;18.90;99.90
29803;DHT22;16702;50.898;4.662;2022-08-21T04:19:39;18.90;99.90
29803;DHT22;16702;50.898;4.662;2022-08-21T04:22:09;18.90;99.90
29803;DHT22;16702;50.898;4.662;2022-08-21T04:24:42;18.90;99.90
29803;DHT22;16702;50.898;4.662;2022-08-21T04:27:13;18.90;99.90
29803;DHT22;16702;50.898;4.662;2022-08-21T04:29:43;18.80;99.90
29803;DHT22;16702;50.898;4.662;2022-08-21T04:32:14;18.80;99.90
29803;DHT22;16702;50.898;4.662;2022-08-21T04:34:56;18.80;99.90
29803;DHT22;16702;50.898;4.662;2022-08-21T04:37:27;18.80;99.90
29803;DHT22;16702;50.898;4.662;2022-08-21T04:40:00;18.80;99.90
29803;DHT22;16702;50.898;4.662;2022-08-21T04:42:31;18.70;99.90
29803;DHT22;16702;50.898;4.662;2022-08-21T04:45:01;18.70;99.90
29803;DHT22;16702;50.898;4.662;2022-08-21T04:47:32;18.70;99.90
29803;DHT22;16702;50.898;4.662;2022-08-21T04:50:19;18.60;99.90
29803;DHT22;16702;50.898;4.662;2022-08-21T04:53:03;18.60;99.90
29803;DHT22;16702;50.898;4.662;2022-08-21T04:55:36;18.60;99.90
29803;DHT22;16702;50.898;4.662;2022-08-21T04:58:08;18.40;99.90
29803;DHT22;16702;50.898;4.662;2022-08-21T05:00:39;18.40;99.90
29803;DHT22;16702;50.898;4.662;2022-08-21T05:03:14;18.40;99.90
29803;DHT22;16702;50.898;4.662;2022-08-21T05:05:45;18.40;99.90
29803;DHT22;16702;50.898;4.662;2022-08-21T05:08:18;18.40;99.90
29803;DHT22;16702;50.898;4.662;2022-08-21T05:10:53;18.40;99.90
29803;DHT22;16702;50.898;4.662;2022-08-21T05:13:27;18.40;99.90
29803;DHT22;16702;50.898;4.662;2022-08-21T05:15:57;18.40;99.90
29803;DHT22;16702;50.898;4.662;2022-08-21T05:18:28;18.40;99.90
29803;DHT22;16702;50.898;4.662;2022-08-21T05:20:58;18.30;99.90
29803;DHT22;16702;50.898;4.662;2022-08-21T05:23:29;18.40;99.90
29803;DHT22;16702;50.898;4.662;2022-08-21T05:26:02;18.30;99.90
29803;DHT22;16702;50.898;4.662;2022-08-21T05:28:44;18.30;99.90
29803;DHT22;16702;50.898;4.662;2022-08-21T05:31:14;18.30;99.90
29803;DHT22;16702;50.898;4.662;2022-08-21T05:33:44;18.30;99.90
29803;DHT22;16702;50.898;4.662;2022-08-21T05:36:18;18.40;99.90
29803;DHT22;16702;50.898;4.662;2022-08-21T05:38:48;18.30;99.90
29803;DHT22;16702;50.898;4.662;2022-08-21T05:41:21;18.30;99.90
29803;DHT22;16702;50.898;4.662;2022-08-21T05:43:52;18.30;99.90
29803;DHT22;16702;50.898;4.662;2022-08-21T05:46:22;18.30;99.90
29803;DHT22;16702;50.898;4.662;2022-08-21T05:48:53;18.30;99.90
29803;DHT22;16702;50.898;4.662;2022-08-21T05:51:23;18.40;99.90
29803;DHT22;16702;50.898;4.662;2022-08-21T05:53:54;18.30;99.90
29803;DHT22;16702;50.898;4.662;2022-08-21T05:56:27;18.30;99.90
29803;DHT22;16702;50.898;4.662;2022-08-21T05:58:57;18.30;99.90
29803;DHT22;16702;50.898;4.662;2022-08-21T06:01:28;18.30;99.90
29803;DHT22;16702;50.898;4.662;2022-08-21T06:03:59;18.40;99.90
29803;DHT22;16702;50.898;4.662;2022-08-21T06:06:29;18.40;99.90
29803;DHT22;16702;50.898;4.662;2022-08-21T06:08:59;18.50;99.90
29803;DHT22;16702;50.898;4.662;2022-08-21T06:11:34;18.50;99.90
29803;DHT22;16702;50.898;4.662;2022-08-21T06:14:04;18.50;99.90
29803;DHT22;16702;50.898;4.662;2022-08-21T06:16:36;18.50;99.90
29803;DHT22;16702;50.898;4.662;2022-08-21T06:19:06;18.60;99.90
29803;DHT22;16702;50.898;4.662;2022-08-21T06:21:37;18.60;99.90
29803;DHT22;16702;50.898;4.662;2022-08-21T06:24:07;18.60;99.90
29803;DHT22;16702;50.898;4.662;2022-08-21T06:26:40;18.60;99.90
29803;DHT22;16702;50.898;4.662;2022-08-21T06:29:12;18.70;99.90
29803;DHT22;16702;50.898;4.662;2022-08-21T06:31:44;18.70;99.90
29803;DHT22;16702;50.898;4.662;2022-08-21T06:34:15;18.70;99.90
29803;DHT22;16702;50.898;4.662;2022-08-21T06:36:45;18.80;99.90
29803;DHT22;16702;50.898;4.662;2022-08-21T06:39:16;18.80;99.90
29803;DHT22;16702;50.898;4.662;2022-08-21T06:41:59;18.80;99.90
29803;DHT22;16702;50.898;4.662;2022-08-21T06:44:37;18.90;99.90
29803;DHT22;16702;50.898;4.662;2022-08-21T06:47:07;18.90;99.90
29803;DHT22;16702;50.898;4.662;2022-08-21T06:49:38;18.90;99.90
29803;DHT22;16702;50.898;4.662;2022-08-21T06:52:09;19.00;99.90
29803;DHT22;16702;50.898;4.662;2022-08-21T06:54:40;19.00;99.90
29803;DHT22;16702;50.898;4.662;2022-08-21T06:57:13;19.00;99.90
29803;DHT22;16702;50.898;4.662;2022-08-21T06:59:43;19.00;99.90
29803;DHT22;16702;50.898;4.662;2022-08-21T07:02:14;19.10;99.90
29803;DHT22;16702;50.898;4.662;2022-08-21T07:04:44;19.00;99.90
29803;DHT22;16702;50.898;4.662;2022-08-21T07:07:14;19.10;99.90
29803;DHT22;16702;50.898;4.662;2022-08-21T07:09:45;19.10;99.90
29803;DHT22;16702;50.898;4.662;2022-08-21T07:12:18;19.20;99.90
29803;DHT22;16702;50.898;4.662;2022-08-21T07:14:49;19.20;99.90
29803;DHT22;16702;50.898;4.662;2022-08-21T07:17:20;19.20;99.90
29803;DHT22;16702;50.898;4.662;2022-08-21T07:19:50;19.20;99.90
29803;DHT22;16702;50.898;4.662;2022-08-21T07:22:21;19.30;99.90
29803;DHT22;16702;50.898;4.662;2022-08-21T07:24:51;19.50;99.90
29803;DHT22;16702;50.898;4.662;2022-08-21T07:27:24;19.50;99.90
29803;DHT22;16702;50.898;4.662;2022-08-21T07:29:55;19.50;99.90
29803;DHT22;16702;50.898;4.662;2022-08-21T07:32:25;19.60;99.90
29803;DHT22;16702;50.898;4.662;2022-08-21T07:34:56;19.60;99.90
29803;DHT22;16702;50.898;4.662;2022-08-21T07:37:26;19.80;99.90
29803;DHT22;16702;50.898;4.662;2022-08-21T07:39:57;19.80;99.90
29803;DHT22;16702;50.898;4.662;2022-08-21T07:42:30;19.90;99.90
29803;DHT22;16702;50.898;4.662;2022-08-21T07:45:00;19.90;99.90
29803;DHT22;16702;50.898;4.662;2022-08-21T07:47:31;19.90;99.90
29803;DHT22;16702;50.898;4.662;2022-08-21T07:50:09;19.80;99.90
29803;DHT22;16702;50.898;4.662;2022-08-21T07:52:40;19.80;99.90
29803;DHT22;16702;50.898;4.662;2022-08-21T07:55:13;19.90;99.90
29803;DHT22;16702;50.898;4.662;2022-08-21T07:57:47;19.90;99.90
29803;DHT22;16702;50.898;4.662;2022-08-21T08:00:20;20.00;99.90
29803;DHT22;16702;50.898;4.662;2022-08-21T08:02:52;20.10;99.90
29803;DHT22;16702;50.898;4.662;2022-08-21T08:05:27;20.10;99.90
29803;DHT22;16702;50.898;4.662;2022-08-21T08:07:58;20.20;99.90
29803;DHT22;16702;50.898;4.662;2022-08-21T08:10:28;20.30;99.90
29803;DHT22;16702;50.898;4.662;2022-08-21T08:13:01;20.30;99.90
29803;DHT22;16702;50.898;4.662;2022-08-21T08:15:37;20.40;99.90
29803;DHT22;16702;50.898;4.662;2022-08-21T08:18:09;20.40;99.90
29803;DHT22;16702;50.898;4.662;2022-08-21T08:20:41;20.50;99.90
29803;DHT22;16702;50.898;4.662;2022-08-21T08:23:12;20.50;99.90
29803;DHT22;16702;50.898;4.662;2022-08-21T08:25:45;20.60;99.90
29803;DHT22;16702;50.898;4.662;2022-08-21T08:28:18;20.60;99.90
29803;DHT22;16702;50.898;4.662;2022-08-21T08:30:49;20.60;99.90
29803;DHT22;16702;50.898;4.662;2022-08-21T08:33:19;20.60;99.90
29803;DHT22;16702;50.898;4.662;2022-08-21T08:35:51;20.60;99.90
29803;DHT22;16702;50.898;4.662;2022-08-21T08:38:23;20.60;99.90
29803;DHT22;16702;50.898;4.662;2022-08-21T08:41:00;20.70;99.90
29803;DHT22;16702;50.898;4.662;2022-08-21T08:43:34;20.70;99.90
29803;DHT22;16702;50.898;4.662;2022-08-21T08:46:10;20.70;99.90
29803;DHT22;16702;50.898;4.662;2022-08-21T08:48:50;20.70;99.90
29803;DHT22;16702;50.898;4.662;2022-08-21T08:51:25;20.70;99.90
29803;DHT22;16702;50.898;4.662;2022-08-21T08:54:00;20.80;99.90
29803;DHT22;16702;50.898;4.662;2022-08-21T08:56:35;20.80;99.90
29803;DHT22;16702;50.898;4.662;2022-08-21T08:59:15;20.90;99.90
29803;DHT22;16702;50.898;4.662;2022-08-21T09:01:48;21.00;99.90
29803;DHT22;16702;50.898;4.662;2022-08-21T09:04:22;21.00;99.90
29803;DHT22;16702;50.898;4.662;2022-08-21T09:07:02;21.00;99.90
29803;DHT22;16702;50.898;4.662;2022-08-21T09:09:51;21.10;99.90
29803;DHT22;16702;50.898;4.662;2022-08-21T09:12:36;21.10;99.90
29803;DHT22;16702;50.898;4.662;2022-08-21T09:15:19;21.10;99.90
29803;DHT22;16702;50.898;4.662;2022-08-21T09:18:01;21.00;99.90
29803;DHT22;16702;50.898;4.662;2022-08-21T09:20:40;21.10;99.90
29803;DHT22;16702;50.898;4.662;2022-08-21T09:23:22;21.20;99.90
29803;DHT22;16702;50.898;4.662;2022-08-21T09:26:00;21.30;99.90
29803;DHT22;16702;50.898;4.662;2022-08-21T09:28:33;21.30;99.90
29803;DHT22;16702;50.898;4.662;2022-08-21T09:31:11;21.40;99.90
29803;DHT22;16702;50.898;4.662;2022-08-21T09:33:45;21.50;99.90
29803;DHT22;16702;50.898;4.662;2022-08-21T09:36:25;21.40;99.90
29803;DHT22;16702;50.898;4.662;2022-08-21T09:39:00;21.50;99.90
29803;DHT22;16702;50.898;4.662;2022-08-21T09:41:33;21.50;99.90
29803;DHT22;16702;50.898;4.662;2022-08-21T09:44:05;21.70;99.90
29803;DHT22;16702;50.898;4.662;2022-08-21T09:46:50;21.80;99.90
29803;DHT22;16702;50.898;4.662;2022-08-21T09:49:32;21.90;99.90
29803;DHT22;16702;50.898;4.662;2022-08-21T09:52:17;22.00;99.90
29803;DHT22;16702;50.898;4.662;2022-08-21T09:54:51;22.10;99.90
29803;DHT22;16702;50.898;4.662;2022-08-21T09:57:24;22.30;99.90
29803;DHT22;16702;50.898;4.662;2022-08-21T10:00:19;22.40;99.90
29803;DHT22;16702;50.898;4.662;2022-08-21T10:02:52;22.40;99.90
29803;DHT22;16702;50.898;4.662;2022-08-21T10:05:25;22.30;99.90
29803;DHT22;16702;50.898;4.662;2022-08-21T10:07:56;22.20;99.90
29803;DHT22;16702;50.898;4.662;2022-08-21T10:10:29;22.10;99.90
29803;DHT22;16702;50.898;4.662;2022-08-21T10:13:05;22.10;99.90
29803;DHT22;16702;50.898;4.662;2022-08-21T10:15:43;22.10;99.90
29803;DHT22;16702;50.898;4.662;2022-08-21T10:18:24;22.20;99.90
29803;DHT22;16702;50.898;4.662;2022-08-21T10:21:03;22.20;99.90
29803;DHT22;16702;50.898;4.662;2022-08-21T10:23:45;22.10;99.90
29803;DHT22;16702;50.898;4.662;2022-08-21T10:26:29;22.20;99.90
29803;DHT22;16702;50.898;4.662;2022-08-21T10:29:11;22.20;99.90
29803;DHT22;16702;50.898;4.662;2022-08-21T10:31:52;22.20;99.90
29803;DHT22;16702;50.898;4.662;2022-08-21T10:34:41;22.30;99.90
29803;DHT22;16702;50.898;4.662;2022-08-21T10:37:26;22.40;99.90
29803;DHT22;16702;50.898;4.662;2022-08-21T10:40:12;22.60;99.90
29803;DHT22;16702;50.898;4.662;2022-08-21T10:42:52;22.70;99.90
29803;DHT22;16702;50.898;4.662;2022-08-21T10:45:36;22.60;99.90
29803;DHT22;16702;50.898;4.662;2022-08-21T10:51:15;22.90;99.90
29803;DHT22;16702;50.898;4.662;2022-08-21T10:54:00;22.90;99.90
29803;DHT22;16702;50.898;4.662;2022-08-21T10:56:34;23.00;99.90
29803;DHT22;16702;50.898;4.662;2022-08-21T10:59:23;22.80;99.90
29803;DHT22;16702;50.898;4.662;2022-08-21T11:01:59;22.70;99.90
29803;DHT22;16702;50.898;4.662;2022-08-21T11:04:49;22.70;99.90
29803;DHT22;16702;50.898;4.662;2022-08-21T11:07:26;22.80;99.90
29803;DHT22;16702;50.898;4.662;2022-08-21T11:10:04;23.20;99.90
29803;DHT22;16702;50.898;4.662;2022-08-21T11:12:41;23.40;99.90
29803;DHT22;16702;50.898;4.662;2022-08-21T11:15:25;23.50;99.90
29803;DHT22;16702;50.898;4.662;2022-08-21T11:18:04;23.50;99.90
29803;DHT22;16702;50.898;4.662;2022-08-21T11:20:42;23.70;99.90
29803;DHT22;16702;50.898;4.662;2022-08-21T11:23:21;23.60;99.90
29803;DHT22;16702;50.898;4.662;2022-08-21T11:26:00;23.80;99.90
29803;DHT22;16702;50.898;4.662;2022-08-21T11:28:33;24.00;99.90
29803;DHT22;16702;50.898;4.662;2022-08-21T11:31:12;24.10;99.90
29803;DHT22;16702;50.898;4.662;2022-08-21T11:33:57;23.90;99.90
29803;DHT22;16702;50.898;4.662;2022-08-21T11:36:36;23.90;99.90
29803;DHT22;16702;50.898;4.662;2022-08-21T11:39:22;23.70;99.90
29803;DHT22;16702;50.898;4.662;2022-08-21T11:42:00;23.60;99.90
29803;DHT22;16702;50.898;4.662;2022-08-21T11:44:44;23.60;99.90
29803;DHT22;16702;50.898;4.662;2022-08-21T11:47:25;23.50;99.90
29803;DHT22;16702;50.898;4.662;2022-08-21T11:50:05;23.50;99.90
29803;DHT22;16702;50.898;4.662;2022-08-21T11:53:01;23.90;99.90
29803;DHT22;16702;50.898;4.662;2022-08-21T11:55:40;24.20;99.90
29803;DHT22;16702;50.898;4.662;2022-08-21T11:58:16;24.50;99.40
29803;DHT22;16702;50.898;4.662;2022-08-21T12:00:53;24.50;99.50
29803;DHT22;16702;50.898;4.662;2022-08-21T12:03:27;24.40;99.40
29803;DHT22;16702;50.898;4.662;2022-08-21T12:06:00;24.50;99.00
29803;DHT22;16702;50.898;4.662;2022-08-21T12:08:34;24.60;98.70
29803;DHT22;16702;50.898;4.662;2022-08-21T12:11:20;24.70;97.50
29803;DHT22;16702;50.898;4.662;2022-08-21T12:14:00;24.60;97.90
29803;DHT22;16702;50.898;4.662;2022-08-21T12:16:33;24.70;97.60
29803;DHT22;16702;50.898;4.662;2022-08-21T12:19:05;24.80;97.10
29803;DHT22;16702;50.898;4.662;2022-08-21T12:21:49;24.80;97.50
29803;DHT22;16702;50.898;4.662;2022-08-21T12:24:32;24.80;97.80
29803;DHT22;16702;50.898;4.662;2022-08-21T12:27:23;25.00;96.40
29803;DHT22;16702;50.898;4.662;2022-08-21T12:30:00;25.20;96.00
29803;DHT22;16702;50.898;4.662;2022-08-21T12:32:44;25.00;95.90
29803;DHT22;16702;50.898;4.662;2022-08-21T12:35:18;25.40;96.80
29803;DHT22;16702;50.898;4.662;2022-08-21T12:37:57;25.50;95.70
29803;DHT22;16702;50.898;4.662;2022-08-21T12:40:32;25.20;95.00
29803;DHT22;16702;50.898;4.662;2022-08-21T12:43:14;25.50;94.90
29803;DHT22;16702;50.898;4.662;2022-08-21T12:45:48;25.60;95.00
29803;DHT22;16702;50.898;4.662;2022-08-21T12:48:23;25.50;95.50
29803;DHT22;16702;50.898;4.662;2022-08-21T12:50:58;25.50;94.60
29803;DHT22;16702;50.898;4.662;2022-08-21T12:53:40;25.50;94.80
29803;DHT22;16702;50.898;4.662;2022-08-21T12:56:14;25.30;94.00
29803;DHT22;16702;50.898;4.662;2022-08-21T12:58:49;25.60;94.70
29803;DHT22;16702;50.898;4.662;2022-08-21T13:01:23;25.70;94.50
29803;DHT22;16702;50.898;4.662;2022-08-21T13:04:01;25.70;93.70
29803;DHT22;16702;50.898;4.662;2022-08-21T13:06:37;25.70;94.00
29803;DHT22;16702;50.898;4.662;2022-08-21T13:09:12;25.80;94.20
29803;DHT22;16702;50.898;4.662;2022-08-21T13:11:45;25.70;94.30
29803;DHT22;16702;50.898;4.662;2022-08-21T13:14:26;25.50;94.60
29803;DHT22;16702;50.898;4.662;2022-08-21T13:16:59;25.40;95.20
29803;DHT22;16702;50.898;4.662;2022-08-21T13:19:34;25.20;94.90
29803;DHT22;16702;50.898;4.662;2022-08-21T13:22:12;25.20;95.30
29803;DHT22;16702;50.898;4.662;2022-08-21T13:25:03;25.20;94.70
29803;DHT22;16702;50.898;4.662;2022-08-21T13:27:40;25.20;94.90
29803;DHT22;16702;50.898;4.662;2022-08-21T13:30:18;25.20;94.90
29803;DHT22;16702;50.898;4.662;2022-08-21T13:32:51;25.20;95.00
29803;DHT22;16702;50.898;4.662;2022-08-21T13:35:26;25.40;95.30
29803;DHT22;16702;50.898;4.662;2022-08-21T13:37:56;25.50;95.40
29803;DHT22;16702;50.898;4.662;2022-08-21T13:40:44;25.70;95.70
29803;DHT22;16702;50.898;4.662;2022-08-21T13:43:18;25.70;95.20
29803;DHT22;16702;50.898;4.662;2022-08-21T13:45:54;25.90;95.40
29803;DHT22;16702;50.898;4.662;2022-08-21T13:48:28;26.00;94.50
29803;DHT22;16702;50.898;4.662;2022-08-21T13:50:59;26.20;94.30
29803;DHT22;16702;50.898;4.662;2022-08-21T13:53:34;26.10;94.00
29803;DHT22;16702;50.898;4.662;2022-08-21T13:56:05;25.90;93.40
29803;DHT22;16702;50.898;4.662;2022-08-21T13:58:42;25.90;93.70
29803;DHT22;16702;50.898;4.662;2022-08-21T14:01:22;25.90;93.60
29803;DHT22;16702;50.898;4.662;2022-08-21T14:03:55;25.90;93.50
29803;DHT22;16702;50.898;4.662;2022-08-21T14:06:28;25.80;93.20
29803;DHT22;16702;50.898;4.662;2022-08-21T14:09:09;25.70;94.20
29803;DHT22;16702;50.898;4.662;2022-08-21T14:11:41;25.70;94.00
29803;DHT22;16702;50.898;4.662;2022-08-21T14:14:19;25.60;94.10
29803;DHT22;16702;50.898;4.662;2022-08-21T14:16:57;25.50;94.70
29803;DHT22;16702;50.898;4.662;2022-08-21T14:19:47;25.40;94.50
29803;DHT22;16702;50.898;4.662;2022-08-21T14:22:29;25.50;94.80
29803;DHT22;16702;50.898;4.662;2022-08-21T14:25:03;25.50;94.80
29803;DHT22;16702;50.898;4.662;2022-08-21T14:27:35;25.40;94.70
29803;DHT22;16702;50.898;4.662;2022-08-21T14:30:17;25.50;94.60
29803;DHT22;16702;50.898;4.662;2022-08-21T14:32:50;25.40;94.40
29803;DHT22;16702;50.898;4.662;2022-08-21T14:35:21;25.60;94.60
29803;DHT22;16702;50.898;4.662;2022-08-21T14:37:52;25.60;93.60
29803;DHT22;16702;50.898;4.662;2022-08-21T14:40:24;25.50;94.10
29803;DHT22;16702;50.898;4.662;2022-08-21T14:42:55;25.30;94.00
29803;DHT22;16702;50.898;4.662;2022-08-21T14:45:28;25.60;94.60
29803;DHT22;16702;50.898;4.662;2022-08-21T14:48:02;25.70;94.70
29803;DHT22;16702;50.898;4.662;2022-08-21T14:50:32;25.60;94.00
29803;DHT22;16702;50.898;4.662;2022-08-21T14:53:03;25.50;93.30
29803;DHT22;16702;50.898;4.662;2022-08-21T14:55:37;25.50;93.70
29803;DHT22;16702;50.898;4.662;2022-08-21T14:58:21;25.40;94.00
29803;DHT22;16702;50.898;4.662;2022-08-21T15:00:53;25.40;93.60
29803;DHT22;16702;50.898;4.662;2022-08-21T15:03:27;25.50;93.20
29803;DHT22;16702;50.898;4.662;2022-08-21T15:05:58;25.40;93.40
29803;DHT22;16702;50.898;4.662;2022-08-21T15:08:29;25.40;93.90
29803;DHT22;16702;50.898;4.662;2022-08-21T15:11:00;25.40;93.90
29803;DHT22;16702;50.898;4.662;2022-08-21T15:13:44;25.50;93.40
29803;DHT22;16702;50.898;4.662;2022-08-21T15:16:17;25.50;93.30
29803;DHT22;16702;50.898;4.662;2022-08-21T15:18:51;25.50;93.70
29803;DHT22;16702;50.898;4.662;2022-08-21T15:21:21;25.50;93.80
29803;DHT22;16702;50.898;4.662;2022-08-21T15:23:52;25.50;94.10
29803;DHT22;16702;50.898;4.662;2022-08-21T15:26:23;25.50;93.90
29803;DHT22;16702;50.898;4.662;2022-08-21T15:28:53;25.50;94.60
29803;DHT22;16702;50.898;4.662;2022-08-21T15:31:24;25.60;93.90
29803;DHT22;16702;50.898;4.662;2022-08-21T15:33:57;25.50;94.00
29803;DHT22;16702;50.898;4.662;2022-08-21T15:36:27;25.50;93.70
29803;DHT22;16702;50.898;4.662;2022-08-21T15:38:58;25.50;94.00
29803;DHT22;16702;50.898;4.662;2022-08-21T15:41:29;25.40;94.00
29803;DHT22;16702;50.898;4.662;2022-08-21T15:43:59;25.50;94.20
29803;DHT22;16702;50.898;4.662;2022-08-21T15:46:30;25.50;93.60
29803;DHT22;16702;50.898;4.662;2022-08-21T15:49:03;25.60;93.90
29803;DHT22;16702;50.898;4.662;2022-08-21T15:51:34;25.50;93.50
29803;DHT22;16702;50.898;4.662;2022-08-21T15:54:10;25.50;93.90
29803;DHT22;16702;50.898;4.662;2022-08-21T15:56:43;25.50;93.90
29803;DHT22;16702;50.898;4.662;2022-08-21T15:59:16;25.50;94.10
29803;DHT22;16702;50.898;4.662;2022-08-21T16:01:49;25.40;93.60
29803;DHT22;16702;50.898;4.662;2022-08-21T16:04:28;25.40;93.70
29803;DHT22;16702;50.898;4.662;2022-08-21T16:06:58;25.50;93.70
29803;DHT22;16702;50.898;4.662;2022-08-21T16:09:35;25.50;93.70
29803;DHT22;16702;50.898;4.662;2022-08-21T16:12:06;25.50;93.90
29803;DHT22;16702;50.898;4.662;2022-08-21T16:14:37;25.40;94.00
29803;DHT22;16702;50.898;4.662;2022-08-21T16:17:08;25.40;94.00